createdAt,value
2023-04-18T00:00:14.449Z,769.00
2023-04-18T00:01:14.513Z,770.00
2023-04-18T00:02:14.617Z,769.00
2023-04-18T00:03:14.901Z,770.00
2023-04-18T00:04:15.099Z,770.00
2023-04-18T00:05:14.740Z,771.00
2023-04-18T00:06:14.810Z,770.00
2023-04-18T00:07:14.865Z,769.00
2023-04-18T00:08:14.927Z,764.00
2023-04-18T00:09:15.039Z,760.00
2023-04-18T00:10:15.062Z,756.00
2023-04-18T00:11:15.103Z,753.00
2023-04-18T00:12:15.161Z,753.00
2023-04-18T00:13:15.263Z,752.00
2023-04-18T00:14:15.571Z,751.00
2023-04-18T00:15:15.352Z,754.00
2023-04-18T00:16:15.474Z,752.00
2023-04-18T00:17:15.452Z,750.00
2023-04-18T00:18:15.537Z,752.00
2023-04-18T00:19:15.612Z,751.00
2023-04-18T00:20:15.647Z,753.00
2023-04-18T00:21:15.708Z,753.00
2023-04-18T00:22:15.808Z,751.00
2023-04-18T00:23:15.864Z,751.00
2023-04-18T00:24:16.027Z,751.00
2023-04-18T00:25:15.980Z,752.00
2023-04-18T00:26:16.016Z,752.00
2023-04-18T00:27:16.069Z,751.00
2023-04-18T00:28:16.176Z,753.00
2023-04-18T00:29:16.205Z,753.00
2023-04-18T00:30:16.248Z,753.00
2023-04-18T00:31:16.382Z,753.00
2023-04-18T00:32:16.388Z,754.00
2023-04-18T00:33:16.442Z,754.00
2023-04-18T00:34:16.493Z,752.00
2023-04-18T00:35:16.520Z,749.00
2023-04-18T00:36:16.606Z,750.00
2023-04-18T00:37:16.654Z,749.00
2023-04-18T00:38:16.729Z,752.00
2023-04-18T00:39:16.791Z,751.00
2023-04-18T00:40:16.845Z,750.00
2023-04-18T00:41:16.871Z,747.00
2023-04-18T00:42:16.942Z,747.00
2023-04-18T00:43:17.015Z,747.00
2023-04-18T00:44:17.081Z,745.00
2023-04-18T00:45:17.164Z,743.00
2023-04-18T00:46:17.228Z,742.00
2023-04-18T00:47:17.253Z,742.00
2023-04-18T00:48:17.310Z,742.00
2023-04-18T00:49:17.385Z,742.00
2023-04-18T00:50:17.466Z,742.00
2023-04-18T00:51:17.504Z,744.00
2023-04-18T00:52:17.571Z,744.00
2023-04-18T00:53:17.624Z,742.00
2023-04-18T00:54:17.685Z,743.00
2023-04-18T00:55:17.719Z,741.00
2023-04-18T00:56:17.783Z,737.00
2023-04-18T00:57:17.824Z,736.00
2023-04-18T00:58:17.908Z,734.00
2023-04-18T00:59:17.928Z,732.00
2023-04-18T01:00:17.978Z,732.00
2023-04-18T01:01:18.037Z,733.00
2023-04-18T01:02:18.164Z,731.00
2023-04-18T01:03:18.246Z,730.00
2023-04-18T01:04:18.553Z,731.00
2023-04-18T01:05:18.182Z,732.00
2023-04-18T01:06:18.240Z,730.00
2023-04-18T01:07:18.263Z,731.00
2023-04-18T01:08:18.312Z,726.00
2023-04-18T01:09:18.374Z,726.00
2023-04-18T01:10:18.395Z,727.00
2023-04-18T01:11:18.430Z,725.00
2023-04-18T01:12:18.442Z,726.00
2023-04-18T01:13:18.478Z,726.00
2023-04-18T01:14:18.707Z,725.00
2023-04-18T01:15:18.604Z,725.00
2023-04-18T01:16:18.697Z,720.00
2023-04-18T01:17:18.736Z,718.00
2023-04-18T01:18:18.746Z,721.00
2023-04-18T01:19:18.820Z,723.00
2023-04-18T01:20:18.839Z,722.00
2023-04-18T01:21:18.881Z,726.00
2023-04-18T01:22:18.957Z,724.00
2023-04-18T01:23:18.996Z,724.00
2023-04-18T01:24:19.037Z,726.00
2023-04-18T01:25:19.086Z,724.00
2023-04-18T01:26:19.093Z,721.00
2023-04-18T01:27:19.152Z,721.00
2023-04-18T01:28:19.203Z,720.00
2023-04-18T01:29:19.238Z,718.00
2023-04-18T01:30:19.331Z,716.00
2023-04-18T01:31:19.339Z,718.00
2023-04-18T01:32:19.334Z,718.00
2023-04-18T01:33:19.426Z,719.00
2023-04-18T01:34:19.457Z,718.00
2023-04-18T01:35:19.497Z,716.00
2023-04-18T01:36:19.548Z,715.00
2023-04-18T01:37:19.575Z,718.00
2023-04-18T01:38:19.608Z,718.00
2023-04-18T01:39:19.716Z,717.00
2023-04-18T01:40:19.748Z,717.00
2023-04-18T01:41:19.813Z,716.00
2023-04-18T01:42:19.851Z,716.00
2023-04-18T01:43:19.920Z,717.00
2023-04-18T01:44:20.001Z,716.00
2023-04-18T01:45:20.044Z,715.00
2023-04-18T01:46:20.089Z,713.00
2023-04-18T01:47:20.089Z,712.00
2023-04-18T01:48:20.108Z,710.00
2023-04-18T01:49:20.149Z,708.00
2023-04-18T01:50:20.148Z,710.00
2023-04-18T01:51:20.180Z,707.00
2023-04-18T01:52:20.217Z,706.00
2023-04-18T01:53:20.230Z,708.00
2023-04-18T01:54:20.262Z,711.00
2023-04-18T01:55:20.265Z,711.00
2023-04-18T01:56:20.370Z,709.00
2023-04-18T01:57:20.414Z,708.00
2023-04-18T01:58:20.465Z,709.00
2023-04-18T01:59:20.532Z,709.00
2023-04-18T02:00:20.574Z,710.00
2023-04-18T02:01:20.794Z,712.00
2023-04-18T02:02:20.836Z,710.00
2023-04-18T02:03:20.863Z,710.00
2023-04-18T02:04:20.770Z,711.00
2023-04-18T02:05:20.744Z,710.00
2023-04-18T02:06:20.807Z,709.00
2023-04-18T02:07:20.833Z,710.00
2023-04-18T02:08:20.806Z,709.00
2023-04-18T02:09:20.840Z,711.00
2023-04-18T02:10:20.899Z,711.00
2023-04-18T02:11:20.927Z,708.00
2023-04-18T02:12:20.922Z,707.00
2023-04-18T02:13:20.994Z,706.00
2023-04-18T02:14:20.986Z,704.00
2023-04-18T02:15:21.028Z,706.00
2023-04-18T02:16:21.090Z,704.00
2023-04-18T02:17:21.129Z,702.00
2023-04-18T02:18:21.125Z,699.00
2023-04-18T02:19:21.181Z,695.00
2023-04-18T02:20:21.180Z,696.00
2023-04-18T02:21:21.225Z,696.00
2023-04-18T02:22:21.265Z,695.00
2023-04-18T02:23:21.280Z,693.00
2023-04-18T02:24:21.343Z,691.00
2023-04-18T02:25:21.346Z,691.00
2023-04-18T02:26:21.371Z,689.00
2023-04-18T02:27:21.373Z,689.00
2023-04-18T02:28:21.377Z,689.00
2023-04-18T02:29:21.432Z,688.00
2023-04-18T02:30:21.448Z,685.00
2023-04-18T02:31:21.542Z,685.00
2023-04-18T02:32:21.590Z,685.00
2023-04-18T02:33:21.601Z,688.00
2023-04-18T02:34:21.636Z,689.00
2023-04-18T02:35:21.683Z,688.00
2023-04-18T02:36:21.748Z,688.00
2023-04-18T02:37:21.801Z,687.00
2023-04-18T02:38:21.863Z,687.00
2023-04-18T02:39:21.900Z,687.00
2023-04-18T02:40:21.947Z,689.00
2023-04-18T02:41:22.032Z,690.00
2023-04-18T02:42:22.071Z,687.00
2023-04-18T02:43:22.166Z,686.00
2023-04-18T02:44:22.155Z,684.00
2023-04-18T02:45:22.187Z,684.00
2023-04-18T02:46:22.289Z,684.00
2023-04-18T02:47:22.281Z,684.00
2023-04-18T02:48:22.344Z,681.00
2023-04-18T02:49:22.348Z,680.00
2023-04-18T02:50:22.447Z,680.00
2023-04-18T02:51:22.464Z,679.00
2023-04-18T02:52:22.534Z,680.00
2023-04-18T02:53:22.605Z,679.00
2023-04-18T02:54:22.759Z,678.00
2023-04-18T02:55:22.714Z,675.00
2023-04-18T02:56:22.730Z,676.00
2023-04-18T02:57:22.769Z,676.00
2023-04-18T02:58:22.820Z,675.00
2023-04-18T02:59:22.872Z,676.00
2023-04-18T03:00:22.863Z,674.00
2023-04-18T03:01:22.935Z,676.00
2023-04-18T03:02:23.023Z,673.00
2023-04-18T03:03:23.000Z,671.00
2023-04-18T03:04:23.020Z,671.00
2023-04-18T03:05:22.952Z,669.00
2023-04-18T03:06:22.984Z,670.00
2023-04-18T03:07:23.009Z,671.00
2023-04-18T03:08:23.051Z,672.00
2023-04-18T03:09:23.053Z,670.00
2023-04-18T03:10:23.020Z,671.00
2023-04-18T03:11:23.066Z,669.00
2023-04-18T03:12:23.055Z,672.00
2023-04-18T03:13:23.039Z,670.00
2023-04-18T03:14:23.089Z,670.00
2023-04-18T03:15:23.092Z,671.00
2023-04-18T03:16:23.290Z,670.00
2023-04-18T03:17:23.170Z,668.00
2023-04-18T03:18:23.114Z,668.00
2023-04-18T03:19:23.147Z,666.00
2023-04-18T03:20:23.177Z,668.00
2023-04-18T03:21:23.156Z,667.00
2023-04-18T03:22:23.228Z,669.00
2023-04-18T03:23:23.194Z,670.00
2023-04-18T03:24:23.219Z,668.00
2023-04-18T03:25:23.264Z,667.00
2023-04-18T03:26:23.250Z,667.00
2023-04-18T03:27:23.289Z,665.00
2023-04-18T03:28:23.320Z,667.00
2023-04-18T03:29:23.377Z,670.00
2023-04-18T03:30:23.406Z,670.00
2023-04-18T03:31:23.431Z,671.00
2023-04-18T03:32:23.467Z,672.00
2023-04-18T03:33:23.460Z,670.00
2023-04-18T03:34:23.499Z,668.00
2023-04-18T03:35:23.520Z,666.00
2023-04-18T03:36:23.536Z,666.00
2023-04-18T03:37:23.620Z,667.00
2023-04-18T03:38:23.680Z,666.00
2023-04-18T03:39:23.727Z,663.00
2023-04-18T03:40:23.703Z,660.00
2023-04-18T03:41:23.744Z,659.00
2023-04-18T03:42:23.766Z,659.00
2023-04-18T03:43:23.820Z,657.00
2023-04-18T03:44:23.875Z,655.00
2023-04-18T03:45:23.853Z,656.00
2023-04-18T03:46:23.973Z,656.00
2023-04-18T03:47:23.938Z,655.00
2023-04-18T03:48:23.935Z,658.00
2023-04-18T03:49:24.018Z,659.00
2023-04-18T03:50:24.086Z,659.00
2023-04-18T03:51:24.115Z,659.00
2023-04-18T03:52:24.164Z,656.00
2023-04-18T03:53:24.223Z,659.00
2023-04-18T03:54:24.326Z,660.00
2023-04-18T03:55:24.351Z,658.00
2023-04-18T03:56:24.363Z,656.00
2023-04-18T03:57:24.436Z,653.00
2023-04-18T03:58:24.471Z,652.00
2023-04-18T03:59:24.530Z,651.00
2023-04-18T04:00:24.564Z,650.00
2023-04-18T04:01:24.571Z,649.00
2023-04-18T04:02:24.688Z,648.00
2023-04-18T04:03:24.631Z,650.00
2023-04-18T04:04:24.684Z,651.00
2023-04-18T04:05:24.606Z,650.00
2023-04-18T04:06:24.633Z,648.00
2023-04-18T04:07:24.627Z,648.00
2023-04-18T04:08:25.924Z,648.00
2023-04-18T04:09:24.626Z,650.00
2023-04-18T04:10:24.637Z,649.00
2023-04-18T04:11:24.611Z,651.00
2023-04-18T04:12:24.648Z,652.00
2023-04-18T04:13:24.587Z,653.00
2023-04-18T04:14:24.626Z,652.00
2023-04-18T04:15:24.631Z,649.00
2023-04-18T04:16:24.652Z,649.00
2023-04-18T04:17:24.655Z,651.00
2023-04-18T04:18:24.566Z,649.00
2023-04-18T04:19:24.574Z,647.00
2023-04-18T04:20:24.585Z,646.00
2023-04-18T04:21:24.587Z,647.00
2023-04-18T04:22:24.525Z,646.00
2023-04-18T04:23:24.573Z,646.00
2023-04-18T04:24:24.521Z,645.00
2023-04-18T04:25:24.609Z,646.00
2023-04-18T04:26:24.531Z,642.00
2023-04-18T04:27:24.518Z,642.00
2023-04-18T04:28:24.529Z,640.00
2023-04-18T04:29:24.522Z,642.00
2023-04-18T04:30:24.533Z,642.00
2023-04-18T04:31:24.514Z,639.00
2023-04-18T04:32:24.510Z,639.00
2023-04-18T04:33:24.492Z,640.00
2023-04-18T04:34:24.492Z,639.00
2023-04-18T04:35:24.546Z,638.00
2023-04-18T04:36:24.470Z,637.00
2023-04-18T04:37:24.439Z,636.00
2023-04-18T04:38:24.447Z,637.00
2023-04-18T04:39:24.413Z,636.00
2023-04-18T04:40:24.456Z,636.00
2023-04-18T04:41:24.448Z,636.00
2023-04-18T04:42:24.416Z,637.00
2023-04-18T04:43:24.397Z,638.00
2023-04-18T04:44:24.426Z,638.00
2023-04-18T04:45:24.515Z,639.00
2023-04-18T04:46:24.495Z,637.00
2023-04-18T04:47:24.398Z,637.00
2023-04-18T04:48:24.415Z,639.00
2023-04-18T04:49:24.378Z,639.00
2023-04-18T04:50:24.377Z,640.00
2023-04-18T04:51:24.325Z,639.00
2023-04-18T04:52:24.359Z,640.00
2023-04-18T04:53:24.339Z,638.00
2023-04-18T04:54:24.353Z,637.00
2023-04-18T04:55:24.361Z,638.00
2023-04-18T04:56:24.316Z,638.00
2023-04-18T04:57:24.304Z,636.00
2023-04-18T04:58:24.306Z,634.00
2023-04-18T04:59:24.320Z,634.00
2023-04-18T05:00:24.305Z,635.00
2023-04-18T05:01:24.399Z,635.00
2023-04-18T05:02:24.491Z,634.00
2023-04-18T05:03:24.393Z,635.00
2023-04-18T05:04:24.481Z,637.00
2023-04-18T05:05:24.251Z,638.00
2023-04-18T05:06:24.254Z,637.00
2023-04-18T05:07:24.274Z,637.00
2023-04-18T05:08:24.237Z,637.00
2023-04-18T05:09:24.213Z,636.00
2023-04-18T05:10:24.272Z,637.00
2023-04-18T05:11:24.213Z,638.00
2023-04-18T05:12:24.206Z,636.00
2023-04-18T05:13:24.202Z,633.00
2023-04-18T05:14:24.205Z,632.00
2023-04-18T05:15:24.201Z,630.00
2023-04-18T05:16:24.219Z,631.00
2023-04-18T05:17:24.258Z,634.00
2023-04-18T05:18:24.204Z,636.00
2023-04-18T05:19:24.135Z,636.00
2023-04-18T05:20:24.185Z,637.00
2023-04-18T05:21:24.171Z,637.00
2023-04-18T05:22:24.149Z,635.00
2023-04-18T05:23:24.174Z,635.00
2023-04-18T05:24:24.131Z,632.00
2023-04-18T05:25:24.163Z,630.00
2023-04-18T05:26:24.133Z,629.00
2023-04-18T05:27:24.137Z,630.00
2023-04-18T05:28:24.127Z,631.00
2023-04-18T05:29:24.084Z,630.00
2023-04-18T05:30:24.505Z,629.00
2023-04-18T05:31:24.176Z,628.00
2023-04-18T05:32:24.135Z,630.00
2023-04-18T05:33:24.109Z,630.00
2023-04-18T05:34:24.051Z,634.00
2023-04-18T05:35:24.067Z,633.00
2023-04-18T05:36:24.061Z,633.00
2023-04-18T05:37:24.058Z,633.00
2023-04-18T05:38:24.060Z,636.00
2023-04-18T05:39:24.045Z,641.00
2023-04-18T05:40:24.461Z,647.00
2023-04-18T05:41:24.029Z,649.00
2023-04-18T05:42:24.015Z,657.00
2023-04-18T05:43:23.991Z,662.00
2023-04-18T05:44:24.020Z,664.00
2023-04-18T05:45:24.425Z,668.00
2023-04-18T05:46:24.039Z,698.00
2023-04-18T05:47:24.064Z,699.00
2023-04-18T05:48:23.980Z,704.00
2023-04-18T05:49:23.988Z,742.00
2023-04-18T05:50:23.968Z,755.00
2023-04-18T05:51:23.942Z,775.00
2023-04-18T05:52:23.944Z,849.00
2023-04-18T05:53:23.959Z,851.00
2023-04-18T05:54:23.967Z,871.00
2023-04-18T05:55:23.937Z,895.00
2023-04-18T05:56:23.973Z,993.00
2023-04-18T05:57:24.071Z,1016.00
2023-04-18T05:58:24.085Z,1050.00
2023-04-18T05:59:24.198Z,1062.00
2023-04-18T06:00:24.236Z,1076.00
2023-04-18T06:01:24.273Z,1093.00
2023-04-18T06:02:24.563Z,1105.00
2023-04-18T06:03:24.467Z,1118.00
2023-04-18T06:04:24.496Z,1133.00
2023-04-18T06:05:24.709Z,1149.00
2023-04-18T06:06:24.472Z,1167.00
2023-04-18T06:07:24.521Z,1177.00
2023-04-18T06:08:24.533Z,1190.00
2023-04-18T06:09:24.595Z,1240.00
2023-04-18T06:10:24.583Z,1258.00
2023-04-18T06:11:24.613Z,1267.00
2023-04-18T06:12:24.607Z,1271.00
2023-04-18T06:13:24.642Z,1277.00
2023-04-18T06:14:24.710Z,1282.00
2023-04-18T06:15:24.752Z,1284.00
2023-04-18T06:16:24.819Z,1287.00
2023-04-18T06:17:24.787Z,1243.00
2023-04-18T06:18:24.771Z,1246.00
2023-04-18T06:19:24.802Z,1243.00
2023-04-18T06:20:24.820Z,1247.00
2023-04-18T06:21:24.843Z,1235.00
2023-04-18T06:22:24.882Z,1055.00
2023-04-18T06:23:24.882Z,1083.00
2023-04-18T06:24:24.954Z,1087.00
2023-04-18T06:25:24.992Z,1131.00
2023-04-18T06:26:25.008Z,1127.00
2023-04-18T06:27:31.021Z,1077.00
2023-04-18T06:28:26.034Z,1046.00
2023-04-18T06:29:25.008Z,1050.00
2023-04-18T06:30:25.038Z,1046.00
2023-04-18T06:31:25.075Z,1024.00
2023-04-18T06:32:25.015Z,1070.00
2023-04-18T06:33:24.981Z,1095.00
2023-04-18T06:34:24.999Z,1107.00
2023-04-18T06:35:26.544Z,1122.00
2023-04-18T06:36:24.973Z,1138.00
2023-04-18T06:37:24.971Z,1152.00
2023-04-18T06:38:24.987Z,1159.00
2023-04-18T06:39:24.942Z,1166.00
2023-04-18T06:40:25.122Z,1183.00
2023-04-18T06:41:24.956Z,1201.00
2023-04-18T06:42:24.934Z,1219.00
2023-04-18T06:43:25.033Z,1232.00
2023-04-18T06:44:25.039Z,1261.00
2023-04-18T06:45:25.580Z,1282.00
2023-04-18T06:46:25.204Z,1303.00
2023-04-18T06:47:25.076Z,1311.00
2023-04-18T06:48:25.039Z,1322.00
2023-04-18T06:49:26.466Z,1345.00
2023-04-18T06:50:25.119Z,1366.00
2023-04-18T06:51:25.137Z,1382.00
2023-04-18T06:52:25.142Z,1473.00
2023-04-18T06:53:25.195Z,1492.00
2023-04-18T06:54:25.236Z,1515.00
2023-04-18T06:55:25.307Z,1530.00
2023-04-18T06:56:25.386Z,1542.00
2023-04-18T06:57:25.481Z,1551.00
2023-04-18T06:58:25.483Z,1564.00
2023-04-18T06:59:25.562Z,1577.00
2023-04-18T07:00:25.629Z,1588.00
2023-04-18T07:01:25.714Z,1600.00
2023-04-18T07:02:25.814Z,1615.00
2023-04-18T07:03:25.836Z,1630.00
2023-04-18T07:04:25.927Z,1639.00
2023-04-18T07:05:25.871Z,1652.00
2023-04-18T07:06:25.908Z,1695.00
2023-04-18T07:07:26.019Z,1714.00
2023-04-18T07:08:26.109Z,1716.00
2023-04-18T07:09:26.138Z,1724.00
2023-04-18T07:10:26.131Z,1730.00
2023-04-18T07:11:26.155Z,1735.00
2023-04-18T07:12:26.210Z,1745.00
2023-04-18T07:13:26.266Z,1759.00
2023-04-18T07:14:26.312Z,1774.00
2023-04-18T07:15:26.320Z,1783.00
2023-04-18T07:16:26.418Z,1791.00
2023-04-18T07:17:26.457Z,1802.00
2023-04-18T07:18:34.720Z,1809.00
2023-04-18T07:19:27.507Z,1817.00
2023-04-18T07:20:26.458Z,1828.00
2023-04-18T07:21:26.484Z,1841.00
2023-04-18T07:22:26.442Z,1854.00
2023-04-18T07:23:26.431Z,1861.00
2023-04-18T07:24:26.430Z,1869.00
2023-04-18T07:25:26.462Z,1877.00
2023-04-18T07:26:26.415Z,1887.00
2023-04-18T07:27:26.417Z,1898.00
2023-04-18T07:28:26.421Z,1912.00
2023-04-18T07:29:26.389Z,1921.00
2023-04-18T07:30:26.411Z,1930.00
2023-04-18T07:31:26.390Z,1939.00
2023-04-18T07:32:26.450Z,1952.00
2023-04-18T07:33:26.398Z,1963.00
2023-04-18T07:34:26.439Z,1970.00
2023-04-18T07:35:26.450Z,1985.00
2023-04-18T07:36:26.486Z,1996.00
2023-04-18T07:37:26.574Z,2008.00
2023-04-18T07:38:26.724Z,2016.00
2023-04-18T07:39:26.592Z,2028.00
2023-04-18T07:40:27.040Z,2035.00
2023-04-18T07:41:26.647Z,2035.00
2023-04-18T07:42:26.699Z,2041.00
2023-04-18T07:43:26.728Z,2053.00
2023-04-18T07:44:26.760Z,2050.00
2023-04-18T07:45:26.959Z,2076.00
2023-04-18T07:46:26.831Z,2134.00
2023-04-18T07:47:27.575Z,2146.00
2023-04-18T07:48:27.021Z,2142.00
2023-04-18T07:49:27.053Z,2084.00
2023-04-18T07:50:27.539Z,1651.00
2023-04-18T07:51:27.138Z,1483.00
2023-04-18T07:52:27.156Z,1259.00
2023-04-18T07:53:27.181Z,1163.00
2023-04-18T07:54:27.344Z,1102.00
2023-04-18T07:55:27.287Z,1077.00
2023-04-18T07:56:27.344Z,1061.00
2023-04-18T07:57:27.388Z,1314.00
2023-04-18T07:58:27.436Z,1380.00
2023-04-18T07:59:27.510Z,1517.00
2023-04-18T08:00:27.610Z,1488.00
2023-04-18T08:01:27.620Z,1476.00
2023-04-18T08:02:28.653Z,1483.00
2023-04-18T08:03:28.082Z,1499.00
2023-04-18T08:04:29.972Z,1557.00
2023-04-18T08:05:27.797Z,1570.00
2023-04-18T08:06:27.710Z,1594.00
2023-04-18T08:07:27.737Z,1621.00
2023-04-18T08:08:27.691Z,1686.00
2023-04-18T08:09:27.703Z,1715.00
2023-04-18T08:10:27.950Z,1732.00
2023-04-18T08:11:27.681Z,1749.00
2023-04-18T08:12:27.678Z,1772.00
2023-04-18T08:13:27.671Z,1826.00
2023-04-18T08:14:27.674Z,1834.00
2023-04-18T08:15:27.646Z,1847.00
2023-04-18T08:16:27.682Z,1865.00
2023-04-18T08:17:27.673Z,1879.00
2023-04-18T08:18:27.639Z,1895.00
2023-04-18T08:19:27.629Z,1913.00
2023-04-18T08:20:27.637Z,1944.00
2023-04-18T08:21:27.602Z,1962.00
2023-04-18T08:22:27.583Z,1984.00
2023-04-18T08:23:27.595Z,2048.00
2023-04-18T08:24:27.619Z,2074.00
2023-04-18T08:25:27.587Z,2075.00
2023-04-18T08:26:27.623Z,2097.00
2023-04-18T08:27:27.587Z,2132.00
2023-04-18T08:28:27.561Z,2144.00
2023-04-18T08:29:27.594Z,2156.00
2023-04-18T08:30:27.539Z,2174.00
2023-04-18T08:31:27.598Z,2191.00
2023-04-18T08:32:27.569Z,2232.00
2023-04-18T08:33:27.519Z,2247.00
2023-04-18T08:34:27.564Z,2259.00
2023-04-18T08:35:27.509Z,2274.00
2023-04-18T08:36:28.027Z,2283.00
2023-04-18T08:37:27.487Z,2291.00
2023-04-18T08:38:27.477Z,2290.00
2023-04-18T08:39:27.498Z,2289.00
2023-04-18T08:40:27.482Z,2296.00
2023-04-18T08:41:27.472Z,2382.00
2023-04-18T08:42:27.555Z,2403.00
2023-04-18T08:43:27.461Z,2410.00
2023-04-18T08:44:27.473Z,2414.00
2023-04-18T08:45:27.433Z,2408.00
2023-04-18T08:46:27.527Z,2395.00
2023-04-18T08:47:27.412Z,2377.00
2023-04-18T08:48:27.424Z,2382.00
2023-04-18T08:49:27.425Z,2390.00
2023-04-18T08:50:27.391Z,2393.00
2023-04-18T08:51:27.493Z,2391.00
2023-04-18T08:52:27.417Z,2163.00
2023-04-18T08:53:27.405Z,1644.00
2023-04-18T08:54:27.526Z,1788.00
2023-04-18T08:55:27.390Z,1730.00
2023-04-18T08:56:27.385Z,1712.00
2023-04-18T08:57:27.434Z,1558.00
2023-04-18T08:58:27.484Z,1455.00
2023-04-18T08:59:27.377Z,1301.00
2023-04-18T09:00:27.361Z,1266.00
2023-04-18T09:01:27.493Z,1131.00
2023-04-18T09:02:27.693Z,1101.00
2023-04-18T09:03:29.053Z,1018.00
2023-04-18T09:04:27.446Z,1188.00
2023-04-18T09:05:27.469Z,1106.00
2023-04-18T09:06:27.925Z,1423.00
2023-04-18T09:07:27.515Z,1403.00
2023-04-18T09:08:27.520Z,1406.00
2023-04-18T09:09:27.580Z,1399.00
2023-04-18T09:10:27.603Z,1393.00
2023-04-18T09:11:27.570Z,1398.00
2023-04-18T09:12:27.604Z,1406.00
2023-04-18T09:13:27.653Z,1419.00
2023-04-18T09:14:27.948Z,1458.00
2023-04-18T09:15:27.673Z,1476.00
2023-04-18T09:16:27.827Z,1486.00
2023-04-18T09:17:27.713Z,1492.00
2023-04-18T09:18:27.688Z,1500.00
2023-04-18T09:19:27.715Z,1503.00
2023-04-18T09:20:27.722Z,1507.00
2023-04-18T09:21:27.719Z,1506.00
2023-04-18T09:22:27.687Z,1512.00
2023-04-18T09:23:27.759Z,1512.00
2023-04-18T09:24:27.718Z,1507.00
2023-04-18T09:25:27.775Z,1507.00
2023-04-18T09:26:27.980Z,1501.00
2023-04-18T09:27:27.776Z,1495.00
2023-04-18T09:28:27.715Z,1490.00
2023-04-18T09:29:27.732Z,1487.00
2023-04-18T09:30:27.940Z,1487.00
2023-04-18T09:31:27.807Z,1483.00
2023-04-18T09:32:27.802Z,1470.00
2023-04-18T09:33:27.797Z,1465.00
2023-04-18T09:34:27.743Z,1465.00
2023-04-18T09:35:27.763Z,1464.00
2023-04-18T09:36:28.107Z,1464.00
2023-04-18T09:37:27.756Z,1470.00
2023-04-18T09:38:27.773Z,1471.00
2023-04-18T09:39:27.728Z,1472.00
2023-04-18T09:40:27.751Z,1477.00
2023-04-18T09:41:28.009Z,1471.00
2023-04-18T09:42:28.978Z,1441.00
2023-04-18T09:43:27.734Z,1427.00
2023-04-18T09:44:27.744Z,1461.00
2023-04-18T09:45:27.830Z,1464.00
2023-04-18T09:46:28.115Z,1260.00
2023-04-18T09:47:27.788Z,1065.00
2023-04-18T09:48:27.774Z,1075.00
2023-04-18T09:49:27.756Z,1091.00
2023-04-18T09:50:27.812Z,1061.00
2023-04-18T09:51:28.032Z,1035.00
2023-04-18T09:52:27.861Z,939.00
2023-04-18T09:53:27.898Z,920.00
2023-04-18T09:54:27.913Z,990.00
2023-04-18T09:55:27.997Z,982.00
2023-04-18T09:56:28.128Z,1021.00
2023-04-18T09:57:28.059Z,924.00
2023-04-18T09:58:28.106Z,914.00
2023-04-18T09:59:28.160Z,919.00
2023-04-18T10:00:28.216Z,975.00
2023-04-18T10:01:28.329Z,880.00
2023-04-18T10:02:28.384Z,932.00
2023-04-18T10:03:28.418Z,939.00
2023-04-18T10:04:28.495Z,896.00
2023-04-18T10:05:28.547Z,887.00
2023-04-18T10:06:28.493Z,874.00
2023-04-18T10:07:28.542Z,995.00
2023-04-18T10:08:28.602Z,898.00
2023-04-18T10:09:28.619Z,904.00
2023-04-18T10:10:28.694Z,828.00
2023-04-18T10:11:28.786Z,914.00
2023-04-18T10:12:28.808Z,869.00
2023-04-18T10:13:28.889Z,859.00
2023-04-18T10:14:28.887Z,824.00
2023-04-18T10:15:28.928Z,821.00
2023-04-18T10:16:29.080Z,817.00
2023-04-18T10:17:29.750Z,806.00
2023-04-18T10:18:29.135Z,770.00
2023-04-18T10:19:29.188Z,793.00
2023-04-18T10:20:29.207Z,793.00
2023-04-18T10:21:29.280Z,805.00
2023-04-18T10:22:29.346Z,811.00
2023-04-18T10:23:29.403Z,807.00
2023-04-18T10:24:29.433Z,798.00
2023-04-18T10:25:29.492Z,760.00
2023-04-18T10:26:29.562Z,762.00
2023-04-18T10:27:29.636Z,762.00
2023-04-18T10:28:29.700Z,765.00
2023-04-18T10:29:29.738Z,793.00
2023-04-18T10:30:29.822Z,801.00
2023-04-18T10:31:30.082Z,791.00
2023-04-18T10:32:29.983Z,781.00
2023-04-18T10:33:32.262Z,778.00
2023-04-18T10:34:29.974Z,767.00
2023-04-18T10:35:30.027Z,853.00
2023-04-18T10:36:30.038Z,965.00
2023-04-18T10:37:29.990Z,1017.00
2023-04-18T10:38:29.989Z,1054.00
2023-04-18T10:39:29.934Z,1086.00
2023-04-18T10:40:29.932Z,1088.00
2023-04-18T10:41:29.977Z,1173.00
2023-04-18T10:42:29.960Z,1184.00
2023-04-18T10:43:29.906Z,1197.00
2023-04-18T10:44:29.916Z,1274.00
2023-04-18T10:45:29.925Z,1314.00
2023-04-18T10:46:32.191Z,1341.00
2023-04-18T10:47:29.976Z,1356.00
2023-04-18T10:48:29.891Z,1401.00
2023-04-18T10:49:32.608Z,1424.00
2023-04-18T10:50:29.945Z,1441.00
2023-04-18T10:51:29.899Z,1471.00
2023-04-18T10:52:29.897Z,1514.00
2023-04-18T10:53:29.861Z,1542.00
2023-04-18T10:54:29.832Z,1559.00
2023-04-18T10:55:29.860Z,1575.00
2023-04-18T10:56:29.825Z,1610.00
2023-04-18T10:57:29.841Z,1628.00
2023-04-18T10:58:29.841Z,1656.00
2023-04-18T10:59:29.822Z,1692.00
2023-04-18T11:00:29.829Z,1731.00
2023-04-18T11:01:32.373Z,1745.00
2023-04-18T11:02:29.949Z,1757.00
2023-04-18T11:03:29.882Z,1771.00
2023-04-18T11:04:29.916Z,1819.00
2023-04-18T11:05:29.797Z,1846.00
2023-04-18T11:06:29.775Z,1865.00
2023-04-18T11:07:30.104Z,1875.00
2023-04-18T11:08:29.771Z,1890.00
2023-04-18T11:09:29.764Z,1900.00
2023-04-18T11:10:29.789Z,1917.00
2023-04-18T11:11:29.749Z,1948.00
2023-04-18T11:12:29.725Z,1985.00
2023-04-18T11:13:29.736Z,2019.00
2023-04-18T11:14:29.719Z,2032.00
2023-04-18T11:15:31.077Z,2053.00
2023-04-18T11:16:29.755Z,2071.00
2023-04-18T11:17:29.760Z,2088.00
2023-04-18T11:18:29.700Z,2116.00
2023-04-18T11:19:29.662Z,2140.00
2023-04-18T11:20:29.703Z,2153.00
2023-04-18T11:21:30.779Z,2172.00
2023-04-18T11:22:29.668Z,2205.00
2023-04-18T11:23:29.632Z,2239.00
2023-04-18T11:24:29.679Z,2257.00
2023-04-18T11:25:29.643Z,2286.00
2023-04-18T11:26:29.668Z,2305.00
2023-04-18T11:27:30.062Z,2314.00
2023-04-18T11:28:29.680Z,2335.00
2023-04-18T11:29:29.636Z,2352.00
2023-04-18T11:30:29.626Z,2381.00
2023-04-18T11:31:29.635Z,2402.00
2023-04-18T11:32:30.118Z,2451.00
2023-04-18T11:33:29.638Z,2452.00
2023-04-18T11:34:29.581Z,2374.00
2023-04-18T11:35:29.589Z,2371.00
2023-04-18T11:36:29.605Z,2380.00
2023-04-18T11:37:30.083Z,2364.00
2023-04-18T11:38:29.587Z,2368.00
2023-04-18T11:39:29.583Z,2372.00
2023-04-18T11:40:29.597Z,2369.00
2023-04-18T11:41:29.572Z,2364.00
2023-04-18T11:42:29.587Z,2364.00
2023-04-18T11:43:29.564Z,2358.00
2023-04-18T11:44:29.538Z,2350.00
2023-04-18T11:45:29.519Z,2335.00
2023-04-18T11:46:29.640Z,2325.00
2023-04-18T11:47:29.570Z,2315.00
2023-04-18T11:48:29.551Z,2306.00
2023-04-18T11:49:29.565Z,2188.00
2023-04-18T11:50:29.589Z,2195.00
2023-04-18T11:51:29.701Z,2047.00
2023-04-18T11:52:29.707Z,1630.00
2023-04-18T11:53:29.764Z,1580.00
2023-04-18T11:54:29.880Z,1607.00
2023-04-18T11:55:29.828Z,1479.00
2023-04-18T11:56:29.862Z,1248.00
2023-04-18T11:57:29.835Z,1055.00
2023-04-18T11:58:29.869Z,1183.00
2023-04-18T11:59:29.877Z,1115.00
2023-04-18T12:00:29.912Z,1112.00
2023-04-18T12:01:29.974Z,1033.00
2023-04-18T12:02:30.082Z,995.00
2023-04-18T12:03:30.214Z,1005.00
2023-04-18T12:04:30.149Z,1132.00
2023-04-18T12:05:30.221Z,1158.00
2023-04-18T12:06:30.063Z,1102.00
2023-04-18T12:07:30.043Z,1072.00
2023-04-18T12:08:30.045Z,1074.00
2023-04-18T12:09:30.097Z,1078.00
2023-04-18T12:10:30.185Z,1086.00
2023-04-18T12:11:30.098Z,1091.00
2023-04-18T12:12:30.187Z,1095.00
2023-04-18T12:13:30.100Z,1100.00
2023-04-18T12:14:30.089Z,1111.00
2023-04-18T12:15:30.150Z,1120.00
2023-04-18T12:16:30.191Z,1130.00
2023-04-18T12:17:30.093Z,1146.00